Time;durP1;ratioP1;P1;durP2;ratioP2;P2;SDS_P1;SDS_P2;PMS_P1;PMS_P2;Temp;Humidity;BMP_temperature;BMP_pressure;BME280_temperature;BME280_humidity;BME280_pressure;Samples;Min_cycle;Max_cycle;Signal;HPM_P1;HPM_P2
2023/03/07 18:09:47;;;;;;;26.90;9.40;;;13.60;99.90;;;;;;5089552;28;20439;-63
2023/03/07 18:12:14;;;;;;;26.08;9.80;;;13.60;99.90;;;;;;5088409;28;20024;-63
2023/03/07 18:14:39;;;;;;;30.20;10.27;;;13.70;99.90;;;;;;5089591;28;20028;-63
2023/03/07 18:17:06;;;;;;;24.60;9.32;;;13.70;99.90;;;;;;5089001;28;20024;-64
2023/03/07 18:19:33;;;;;;;24.20;8.98;;;13.80;99.90;;;;;;5089299;28;20442;-64
2023/03/07 18:21:58;;;;;;;20.05;8.40;;;13.80;99.90;;;;;;5089374;28;20032;-63
2023/03/07 18:24:28;;;;;;;27.13;9.10;;;13.80;99.90;;;;;;5088041;28;20051;-63
2023/03/07 18:26:57;;;;;;;25.33;8.88;;;13.80;99.90;;;;;;5083751;28;20028;-64
2023/03/07 18:29:25;;;;;;;20.83;8.13;;;13.80;99.90;;;;;;5086839;28;20480;-64
2023/03/07 18:31:51;;;;;;;21.90;8.10;;;13.80;99.90;;;;;;5087430;28;20028;-65
2023/03/07 18:34:17;;;;;;;16.65;8.05;;;13.80;99.90;;;;;;5083704;28;20042;-64
2023/03/07 18:36:43;;;;;;;22.73;8.57;;;13.80;99.90;;;;;;5086814;28;20040;-63
2023/03/07 18:39:09;;;;;;;19.27;7.95;;;13.80;99.90;;;;;;5085619;28;20498;-64
2023/03/07 18:41:36;;;;;;;15.85;6.78;;;13.80;99.90;;;;;;5083527;28;20033;-64
2023/03/07 18:44:02;;;;;;;17.25;6.90;;;13.90;99.90;;;;;;5084188;28;20039;-64
2023/03/07 18:46:30;;;;;;;14.77;6.82;;;13.90;99.90;;;;;;5086281;28;20418;-63
2023/03/07 18:48:58;;;;;;;17.95;6.85;;;13.90;99.90;;;;;;5088279;28;20164;-64
2023/03/07 18:51:25;;;;;;;19.30;6.85;;;13.90;99.90;;;;;;5076479;28;20033;-64
2023/03/07 18:53:53;;;;;;;11.85;5.40;;;13.90;99.90;;;;;;5087168;28;20050;-63
2023/03/07 18:56:20;;;;;;;14.48;5.60;;;13.90;99.90;;;;;;5084944;28;20024;-64
2023/03/07 18:58:46;;;;;;;11.07;5.13;;;13.90;99.90;;;;;;5086065;28;20058;-63
2023/03/07 19:01:12;;;;;;;15.00;6.38;;;13.90;99.90;;;;;;5089957;28;20032;-62
2023/03/07 19:03:38;;;;;;;12.27;5.10;;;14.00;99.90;;;;;;5088692;28;20036;-64
2023/03/07 19:06:05;;;;;;;14.48;5.40;;;14.00;99.90;;;;;;5091361;28;20033;-65
2023/03/07 19:08:31;;;;;;;10.13;4.65;;;14.00;99.90;;;;;;5090530;28;20419;-63
2023/03/07 19:11:01;;;;;;;11.07;5.22;;;14.00;99.90;;;;;;5081451;28;20017;-62
2023/03/07 19:13:27;;;;;;;13.77;5.28;;;14.00;99.90;;;;;;5090390;28;20021;-63
2023/03/07 19:16:12;;;;;;;13.80;5.13;;;14.00;99.90;;;;;;5090409;28;20028;-62
2023/03/07 19:18:38;;;;;;;11.85;4.80;;;14.00;99.90;;;;;;5090391;28;20036;-63
2023/03/07 19:21:06;;;;;;;11.02;4.28;;;14.00;99.90;;;;;;5070948;28;20028;-63
2023/03/07 19:23:32;;;;;;;9.35;3.90;;;14.00;99.90;;;;;;5072851;28;20067;-62
2023/03/07 19:26:02;;;;;;;9.35;3.72;;;14.00;99.90;;;;;;5071855;28;20025;-63
2023/03/07 19:28:29;;;;;;;10.80;3.75;;;14.00;99.90;;;;;;5060973;28;20410;-63
2023/03/07 19:30:58;;;;;;;8.38;3.58;;;14.00;99.90;;;;;;5082919;28;20443;-63
2023/03/07 19:33:24;;;;;;;11.75;3.47;;;14.00;99.90;;;;;;5065964;28;20017;-62
2023/03/07 19:36:14;;;;;;;10.13;3.60;;;14.00;99.90;;;;;;5078671;28;20024;-62
2023/03/07 19:38:40;;;;;;;9.20;3.30;;;14.00;99.90;;;;;;5068131;28;20435;-63
2023/03/07 19:41:11;;;;;;;8.52;3.30;;;14.00;99.90;;;;;;5066905;28;20124;-65
2023/03/07 19:43:37;;;;;;;9.13;3.53;;;14.00;99.90;;;;;;5056864;28;20045;-63
2023/03/07 19:46:07;;;;;;;7.57;3.20;;;14.00;99.90;;;;;;5065146;28;20082;-62
2023/03/07 19:48:34;;;;;;;7.85;3.40;;;14.00;99.90;;;;;;5063141;28;20424;-64
2023/03/07 19:51:00;;;;;;;7.03;2.90;;;14.10;99.90;;;;;;5055816;28;20036;-63
2023/03/07 19:53:26;;;;;;;7.50;3.03;;;14.10;99.90;;;;;;5066606;28;20701;-62
2023/03/07 19:55:52;;;;;;;6.07;2.55;;;14.10;99.90;;;;;;5074702;28;20040;-62
2023/03/07 19:58:18;;;;;;;6.30;2.70;;;14.10;99.90;;;;;;5074364;28;20055;-62
2023/03/07 20:00:47;;;;;;;7.93;2.65;;;14.10;99.90;;;;;;5071043;28;20047;-63
2023/03/07 20:03:15;;;;;;;7.47;2.67;;;14.00;99.90;;;;;;5066630;28;20036;-62
2023/03/07 20:05:43;;;;;;;6.05;2.38;;;14.10;99.90;;;;;;5079583;28;20043;-62
2023/03/07 20:08:09;;;;;;;6.20;2.35;;;14.10;99.90;;;;;;5093264;28;20509;-63
2023/03/07 20:10:37;;;;;;;6.07;2.60;;;14.00;99.90;;;;;;5082746;28;20067;-62
2023/03/07 20:13:03;;;;;;;4.95;2.08;;;14.10;99.90;;;;;;5054078;28;20036;-62
2023/03/07 20:15:29;;;;;;;5.63;2.67;;;14.10;99.90;;;;;;5053940;28;20423;-62
2023/03/07 20:17:55;;;;;;;5.72;2.20;;;14.10;99.90;;;;;;5064157;28;20086;-62
2023/03/07 20:20:21;;;;;;;6.22;2.10;;;14.10;99.90;;;;;;5058357;28;20044;-62
2023/03/07 20:22:51;;;;;;;7.55;2.50;;;14.10;99.90;;;;;;5065417;28;20062;-65
2023/03/07 20:25:17;;;;;;;7.65;2.35;;;14.10;99.90;;;;;;5057769;28;20036;-67
2023/03/07 20:27:43;;;;;;;3.13;1.45;;;14.10;99.90;;;;;;5066797;28;20860;-64
2023/03/07 20:30:10;;;;;;;5.50;2.17;;;14.10;99.90;;;;;;5074753;28;20032;-64
2023/03/07 20:32:36;;;;;;;4.53;1.75;;;14.10;99.90;;;;;;5072844;28;20074;-65
2023/03/07 20:35:03;;;;;;;5.88;2.10;;;14.10;99.90;;;;;;5074575;28;20040;-65
2023/03/07 20:37:31;;;;;;;6.45;1.80;;;14.10;99.90;;;;;;5075224;28;20435;-65
2023/03/07 20:39:58;;;;;;;7.45;1.83;;;14.10;99.90;;;;;;5076062;28;20121;-64
2023/03/07 20:42:24;;;;;;;7.47;1.67;;;14.10;99.90;;;;;;5075529;28;20075;-64
2023/03/07 20:44:51;;;;;;;5.30;1.90;;;14.10;99.90;;;;;;5075473;28;20044;-64
2023/03/07 20:47:16;;;;;;;4.20;1.75;;;14.10;99.90;;;;;;5075919;28;20029;-64
2023/03/07 20:49:42;;;;;;;5.20;1.60;;;14.10;99.90;;;;;;5076088;28;20028;-64
2023/03/07 20:52:08;;;;;;;3.63;1.60;;;14.10;99.90;;;;;;5075657;28;20063;-64
2023/03/07 20:54:34;;;;;;;9.35;1.83;;;14.10;99.90;;;;;;5075827;28;20454;-64
2023/03/07 20:57:00;;;;;;;7.43;2.03;;;14.10;99.90;;;;;;5074457;28;20065;-64
2023/03/07 20:59:26;;;;;;;3.47;1.65;;;14.10;99.90;;;;;;5075175;28;20032;-64
2023/03/07 21:01:52;;;;;;;4.32;1.50;;;14.10;99.90;;;;;;5074394;28;20048;-64
2023/03/07 21:04:19;;;;;;;5.30;1.33;;;14.10;99.90;;;;;;5075165;28;20038;-64
2023/03/07 21:06:46;;;;;;;5.05;1.60;;;14.10;99.90;;;;;;5075395;28;20029;-64
2023/03/07 21:09:13;;;;;;;4.50;1.55;;;14.10;99.90;;;;;;5075350;28;20047;-63
2023/03/07 21:11:45;;;;;;;4.45;1.60;;;14.10;99.90;;;;;;5060772;28;20048;-64
2023/03/07 21:14:12;;;;;;;4.13;1.40;;;14.10;99.90;;;;;;5061522;28;20415;-64
2023/03/07 21:16:38;;;;;;;3.40;1.33;;;14.10;99.90;;;;;;5073796;28;20024;-64
2023/03/07 21:19:05;;;;;;;3.90;1.30;;;14.10;99.90;;;;;;5075426;28;20040;-64
2023/03/07 21:21:33;;;;;;;5.47;1.70;;;14.10;99.90;;;;;;5075534;28;20024;-63
2023/03/07 21:23:59;;;;;;;5.75;1.30;;;14.10;99.90;;;;;;5075379;28;20063;-64
2023/03/07 21:26:28;;;;;;;3.72;1.33;;;14.10;99.90;;;;;;5057517;28;20332;-66
2023/03/07 21:28:55;;;;;;;4.28;1.33;;;14.10;99.90;;;;;;5074952;28;20362;-66
2023/03/07 21:31:23;;;;;;;4.00;1.33;;;14.10;99.90;;;;;;5075217;28;20086;-63
2023/03/07 21:33:55;;;;;;;2.70;1.13;;;14.10;99.90;;;;;;5074497;28;20401;-65
2023/03/07 21:36:23;;;;;;;2.85;1.17;;;14.10;99.90;;;;;;5074967;28;20439;-63
2023/03/07 21:38:49;;;;;;;2.78;1.30;;;14.10;99.90;;;;;;5075119;28;20047;-63
2023/03/07 21:41:17;;;;;;;3.90;1.48;;;14.20;99.90;;;;;;5075175;28;20312;-62
2023/03/07 21:43:43;;;;;;;2.67;1.23;;;14.10;99.90;;;;;;5074362;28;20029;-63
2023/03/07 21:46:11;;;;;;;4.43;1.42;;;14.10;99.90;;;;;;5074707;28;20116;-63
2023/03/07 21:48:37;;;;;;;1.70;0.95;;;14.10;99.90;;;;;;5060759;28;20032;-62
2023/03/07 21:51:04;;;;;;;3.17;1.00;;;14.10;99.90;;;;;;5075248;28;20074;-63
2023/03/07 21:53:30;;;;;;;2.70;1.10;;;14.10;99.90;;;;;;5057657;28;20036;-62
2023/03/07 21:56:01;;;;;;;2.88;1.55;;;14.10;99.90;;;;;;5074453;28;20078;-63
2023/03/07 21:58:28;;;;;;;3.72;1.40;;;14.10;99.90;;;;;;5074604;28;20029;-64
2023/03/07 22:00:55;;;;;;;3.45;1.20;;;14.10;99.90;;;;;;5075024;28;20036;-64
2023/03/07 22:03:22;;;;;;;2.05;1.10;;;14.10;99.90;;;;;;5074972;28;20040;-64
2023/03/07 22:05:48;;;;;;;2.88;1.20;;;14.10;99.90;;;;;;5074395;28;20416;-65
2023/03/07 22:08:16;;;;;;;2.63;1.20;;;14.10;99.90;;;;;;5074986;28;20040;-64
2023/03/07 22:10:43;;;;;;;2.40;1.20;;;14.20;99.90;;;;;;5067742;28;20056;-64
2023/03/07 22:13:09;;;;;;;3.40;1.45;;;14.20;99.90;;;;;;5073383;28;20036;-62
2023/03/07 22:15:39;;;;;;;2.65;1.27;;;14.20;99.90;;;;;;5074677;28;20021;-63
2023/03/07 22:18:05;;;;;;;2.53;1.25;;;14.20;99.90;;;;;;5073737;28;20437;-63
2023/03/07 22:20:31;;;;;;;3.97;1.20;;;14.20;99.90;;;;;;5073804;28;20107;-63
2023/03/07 22:22:57;;;;;;;4.22;1.17;;;14.20;99.90;;;;;;5074670;28;20110;-64
2023/03/07 22:25:22;;;;;;;2.20;1.13;;;14.20;99.90;;;;;;5075093;28;20035;-63
2023/03/07 22:27:48;;;;;;;2.88;1.10;;;14.20;99.90;;;;;;5055893;28;20033;-63
2023/03/07 22:30:14;;;;;;;2.70;1.30;;;14.20;99.90;;;;;;5074811;28;20032;-64
2023/03/07 22:32:43;;;;;;;2.90;1.20;;;14.20;99.90;;;;;;5074179;28;20017;-63
2023/03/07 22:35:09;;;;;;;1.92;1.00;;;14.20;99.90;;;;;;5074902;28;20016;-64
2023/03/07 22:37:35;;;;;;;3.63;1.20;;;14.20;99.90;;;;;;5074221;28;20055;-64
2023/03/07 22:40:02;;;;;;;3.53;1.30;;;14.20;99.90;;;;;;5074150;28;20029;-66
2023/03/07 22:42:28;;;;;;;2.05;1.00;;;14.20;99.90;;;;;;5072930;28;20129;-66
2023/03/07 22:44:54;;;;;;;1.75;1.13;;;14.20;99.90;;;;;;5074385;28;20031;-66
2023/03/07 22:47:20;;;;;;;2.28;1.15;;;14.20;99.90;;;;;;5073976;28;20071;-66
2023/03/07 22:49:49;;;;;;;3.72;1.42;;;14.20;99.90;;;;;;5073654;28;20387;-66
2023/03/07 22:52:15;;;;;;;1.92;1.10;;;14.20;99.90;;;;;;5074836;28;20036;-66
2023/03/07 22:54:42;;;;;;;3.05;1.15;;;14.20;99.90;;;;;;5074964;28;20447;-66
2023/03/07 22:57:08;;;;;;;2.72;1.10;;;14.20;99.90;;;;;;5077284;28;20061;-66
2023/03/07 22:59:34;;;;;;;6.10;1.10;;;14.20;99.90;;;;;;5078557;28;20094;-65
2023/03/07 23:02:00;;;;;;;5.05;0.90;;;14.20;99.90;;;;;;5077984;28;20043;-63
2023/03/07 23:04:27;;;;;;;1.95;1.00;;;14.20;99.90;;;;;;5079004;28;20116;-63
2023/03/07 23:06:53;;;;;;;2.90;1.33;;;14.20;99.90;;;;;;5098390;28;20032;-65
2023/03/07 23:09:19;;;;;;;3.97;1.02;;;14.20;99.90;;;;;;5098166;28;20343;-64
2023/03/07 23:11:47;;;;;;;2.72;1.20;;;14.20;99.90;;;;;;5067010;28;20040;-63
2023/03/07 23:14:14;;;;;;;3.17;1.10;;;14.20;99.90;;;;;;5058971;28;20440;-63
2023/03/07 23:16:41;;;;;;;2.33;1.10;;;14.20;99.90;;;;;;5057999;28;20033;-66
2023/03/07 23:19:07;;;;;;;3.78;0.90;;;14.20;99.90;;;;;;5057437;28;20029;-65
2023/03/07 23:21:34;;;;;;;2.70;1.00;;;14.20;99.90;;;;;;5063539;28;20408;-63
2023/03/07 23:24:01;;;;;;;2.90;1.10;;;14.20;99.90;;;;;;5077604;28;20089;-63
2023/03/07 23:26:32;;;;;;;2.47;1.05;;;14.20;99.90;;;;;;5059731;28;20036;-63
2023/03/07 23:28:59;;;;;;;2.22;1.05;;;14.20;99.90;;;;;;5076604;28;21373;-62
2023/03/07 23:31:27;;;;;;;1.85;0.90;;;14.20;99.90;;;;;;5077862;28;20055;-65
2023/03/07 23:34:01;;;;;;;1.83;0.80;;;14.10;99.90;;;;;;5076006;28;20411;-64
2023/03/07 23:36:29;;;;;;;2.80;1.10;;;14.20;99.90;;;;;;5077631;28;20035;-63
2023/03/07 23:38:56;;;;;;;1.95;0.98;;;14.20;99.90;;;;;;5077464;28;20037;-63
2023/03/07 23:41:23;;;;;;;3.75;1.13;;;14.20;99.90;;;;;;5077103;28;20135;-63
2023/03/07 23:43:57;;;;;;;1.85;1.00;;;14.10;99.90;;;;;;5077152;28;20382;-63
2023/03/07 23:46:23;;;;;;;2.13;1.00;;;14.10;99.90;;;;;;5076510;28;20036;-63
2023/03/07 23:48:50;;;;;;;2.00;1.05;;;14.10;99.90;;;;;;5076703;28;20423;-62
2023/03/07 23:51:16;;;;;;;1.95;1.20;;;14.10;99.90;;;;;;5077219;28;20431;-63
2023/03/07 23:53:42;;;;;;;2.45;1.10;;;14.10;99.90;;;;;;5077087;28;20056;-63
2023/03/07 23:56:10;;;;;;;4.05;1.10;;;14.10;99.90;;;;;;5076967;28;20028;-63
2023/03/07 23:58:36;;;;;;;3.00;1.20;;;14.10;99.90;;;;;;5076922;28;20422;-62
